createdAt,value
2019-03-29T00:02:15.375Z,47.90
2019-03-29T00:04:45.541Z,48.10
2019-03-29T00:07:15.638Z,48.10
2019-03-29T00:09:46.666Z,47.90
2019-03-29T00:12:16.728Z,47.50
2019-03-29T00:14:46.938Z,47.20
2019-03-29T00:17:17.951Z,46.90
2019-03-29T00:19:48.295Z,46.80
2019-03-29T00:22:18.450Z,46.80
2019-03-29T00:24:48.572Z,47.10
2019-03-29T00:27:20.399Z,47.10
2019-03-29T00:29:50.812Z,47.20
2019-03-29T00:32:20.988Z,47.00
2019-03-29T00:34:52.033Z,47.30
2019-03-29T00:37:22.188Z,47.40
2019-03-29T00:39:52.245Z,47.50
2019-03-29T00:42:22.245Z,47.50
2019-03-29T00:44:52.911Z,48.00
2019-03-29T00:47:23.574Z,47.70
2019-03-29T00:49:53.692Z,47.70
2019-03-29T00:52:24.206Z,48.20
2019-03-29T00:54:55.473Z,48.10
2019-03-29T00:57:25.666Z,47.80
2019-03-29T00:59:55.733Z,47.80
2019-03-29T01:02:25.798Z,48.40
2019-03-29T01:04:56.367Z,48.70
2019-03-29T01:07:26.602Z,48.70
2019-03-29T01:09:56.951Z,48.70
2019-03-29T01:12:28.125Z,48.50
2019-03-29T01:14:58.269Z,48.50
2019-03-29T01:17:30.983Z,48.20
2019-03-29T01:20:01.175Z,48.10
2019-03-29T01:22:33.246Z,47.90
2019-03-29T01:25:03.982Z,47.80
2019-03-29T01:27:34.039Z,48.20
2019-03-29T01:30:06.356Z,48.40
2019-03-29T01:32:36.575Z,48.30
2019-03-29T01:35:08.335Z,47.80
2019-03-29T01:37:42.877Z,47.70
2019-03-29T01:40:14.061Z,47.40
2019-03-29T01:42:45.085Z,47.30
2019-03-29T01:45:15.494Z,47.30
2019-03-29T01:47:45.760Z,47.20
2019-03-29T01:50:15.914Z,46.90
2019-03-29T01:52:45.998Z,47.00
2019-03-29T01:55:16.339Z,47.50
2019-03-29T01:57:46.573Z,48.30
2019-03-29T02:00:31.622Z,48.80
2019-03-29T02:03:04.003Z,48.60
2019-03-29T02:05:34.087Z,49.30
2019-03-29T02:08:05.710Z,49.50
2019-03-29T02:10:35.899Z,49.20
2019-03-29T02:13:13.261Z,48.70
2019-03-29T02:15:48.706Z,48.50
2019-03-29T02:18:19.007Z,48.10
2019-03-29T02:20:50.019Z,48.00
2019-03-29T02:23:21.967Z,48.20
2019-03-29T02:25:52.197Z,48.40
2019-03-29T02:28:22.319Z,48.30
2019-03-29T02:30:52.460Z,47.90
2019-03-29T02:33:22.665Z,48.00
2019-03-29T02:35:52.804Z,48.00
2019-03-29T02:38:25.414Z,48.00
2019-03-29T02:40:58.328Z,48.50
2019-03-29T02:43:30.100Z,49.30
2019-03-29T02:46:02.669Z,49.40
2019-03-29T02:48:34.630Z,49.60
2019-03-29T02:51:05.227Z,49.50
2019-03-29T02:53:35.500Z,49.70
2019-03-29T02:56:05.618Z,50.00
2019-03-29T02:58:35.842Z,50.00
2019-03-29T03:01:05.933Z,50.20
2019-03-29T03:03:36.082Z,50.60
2019-03-29T03:06:10.479Z,50.60
2019-03-29T03:08:40.662Z,50.80
2019-03-29T03:11:26.105Z,50.90
2019-03-29T03:13:57.284Z,51.10
2019-03-29T03:16:27.402Z,51.30
2019-03-29T03:18:57.547Z,51.20
2019-03-29T03:21:27.824Z,51.30
2019-03-29T03:23:57.885Z,51.70
2019-03-29T03:26:28.099Z,52.20
2019-03-29T03:28:58.158Z,52.10
2019-03-29T03:31:30.636Z,52.00
2019-03-29T03:34:00.722Z,51.70
2019-03-29T03:36:30.914Z,51.60
2019-03-29T03:39:01.072Z,51.70
2019-03-29T03:41:32.727Z,51.60
2019-03-29T03:44:03.635Z,52.00
2019-03-29T03:46:35.844Z,52.80
2019-03-29T03:49:06.270Z,53.00
2019-03-29T03:51:36.514Z,52.80
2019-03-29T03:54:09.216Z,52.70
2019-03-29T03:56:41.854Z,52.60
2019-03-29T03:59:13.923Z,52.50
2019-03-29T04:01:46.783Z,52.70
2019-03-29T04:04:18.669Z,52.70
2019-03-29T04:06:50.847Z,53.10
2019-03-29T04:09:22.702Z,53.00
2019-03-29T04:11:52.933Z,52.70
2019-03-29T04:14:23.020Z,52.40
2019-03-29T04:16:53.593Z,52.30
2019-03-29T04:19:23.823Z,52.40
2019-03-29T04:21:55.561Z,53.00
2019-03-29T04:24:25.887Z,53.10
2019-03-29T04:26:56.128Z,53.10
2019-03-29T04:29:27.373Z,53.30
2019-03-29T04:31:57.668Z,53.50
2019-03-29T04:34:28.862Z,54.00
2019-03-29T04:36:59.124Z,54.20
2019-03-29T04:39:31.322Z,54.60
2019-03-29T04:42:01.779Z,54.60
2019-03-29T04:44:31.901Z,54.20
2019-03-29T04:47:02.267Z,54.10
2019-03-29T04:49:32.453Z,54.30
2019-03-29T04:52:04.176Z,54.70
2019-03-29T04:54:34.503Z,54.50
2019-03-29T04:57:04.659Z,54.60
2019-03-29T04:59:34.781Z,54.70
2019-03-29T05:02:05.005Z,54.60
2019-03-29T05:04:35.070Z,54.40
2019-03-29T05:07:05.458Z,54.80
2019-03-29T05:09:35.639Z,54.50
2019-03-29T05:12:05.786Z,54.60
2019-03-29T05:14:36.111Z,54.90
2019-03-29T05:17:17.681Z,55.20
2019-03-29T05:20:02.859Z,55.00
2019-03-29T05:22:33.286Z,55.40
2019-03-29T05:25:06.625Z,55.60
2019-03-29T05:27:35.903Z,55.80
2019-03-29T05:30:07.641Z,55.90
2019-03-29T05:32:38.545Z,55.90
2019-03-29T05:35:09.047Z,55.50
2019-03-29T05:37:39.271Z,55.30
2019-03-29T05:40:11.377Z,54.80
2019-03-29T05:42:41.451Z,54.50
2019-03-29T05:45:12.298Z,54.20
2019-03-29T05:47:42.397Z,54.70
2019-03-29T05:50:12.936Z,54.70
2019-03-29T05:52:43.152Z,55.20
2019-03-29T05:55:13.374Z,54.80
2019-03-29T05:57:43.643Z,54.50
2019-03-29T06:00:17.629Z,53.80
2019-03-29T06:02:47.670Z,53.80
2019-03-29T06:05:18.739Z,53.40
2019-03-29T06:07:49.039Z,53.80
2019-03-29T06:10:20.913Z,53.70
2019-03-29T06:12:51.016Z,53.20
2019-03-29T06:15:21.524Z,53.10
2019-03-29T06:17:51.659Z,53.20
2019-03-29T06:20:21.901Z,52.30
2019-03-29T06:22:52.079Z,51.70
2019-03-29T06:25:23.677Z,51.00
2019-03-29T06:27:55.298Z,50.40
2019-03-29T06:30:29.711Z,49.90
2019-03-29T06:33:01.121Z,50.00
2019-03-29T06:35:33.306Z,49.90
2019-03-29T06:38:08.734Z,50.30
2019-03-29T06:40:39.055Z,49.80
2019-03-29T06:43:09.485Z,49.30
2019-03-29T06:45:47.662Z,49.10
2019-03-29T06:48:11.469Z,48.90
2019-03-29T06:50:41.629Z,48.70
2019-03-29T06:53:12.740Z,48.30
2019-03-29T06:55:42.823Z,48.40
2019-03-29T06:58:14.490Z,48.00
2019-03-29T07:00:46.667Z,48.20
2019-03-29T07:03:17.293Z,47.40
2019-03-29T07:05:47.467Z,47.40
2019-03-29T07:08:17.519Z,47.20
2019-03-29T07:10:47.695Z,46.40
2019-03-29T07:13:19.511Z,45.80
2019-03-29T07:15:51.245Z,45.70
2019-03-29T07:18:21.393Z,44.90
2019-03-29T07:20:52.147Z,44.60
2019-03-29T07:23:23.944Z,43.70
2019-03-29T07:25:56.344Z,43.70
2019-03-29T07:28:25.894Z,43.40
2019-03-29T07:30:55.883Z,43.60
2019-03-29T07:33:25.901Z,42.50
2019-03-29T07:35:56.119Z,42.00
2019-03-29T07:38:26.316Z,41.60
2019-03-29T07:40:56.572Z,41.00
2019-03-29T07:43:26.869Z,40.00
2019-03-29T07:45:57.042Z,40.40
2019-03-29T07:48:27.081Z,40.40
2019-03-29T07:50:57.160Z,39.80
2019-03-29T07:53:27.876Z,39.10
2019-03-29T07:55:59.582Z,38.90
2019-03-29T07:58:32.903Z,38.30
2019-03-29T08:01:04.581Z,38.60
2019-03-29T08:03:34.606Z,38.80
2019-03-29T08:06:06.154Z,39.40
2019-03-29T08:08:36.286Z,39.40
2019-03-29T08:11:06.479Z,38.80
2019-03-29T08:13:36.705Z,37.90
2019-03-29T08:16:06.819Z,37.80
2019-03-29T08:18:37.129Z,38.60
2019-03-29T08:21:07.813Z,38.60
2019-03-29T08:23:37.874Z,37.60
2019-03-29T08:26:08.475Z,37.00
2019-03-29T08:28:38.600Z,37.10
2019-03-29T08:31:08.942Z,36.50
2019-03-29T08:33:39.084Z,36.40
2019-03-29T08:36:09.479Z,35.60
2019-03-29T08:38:40.024Z,35.90
2019-03-29T08:41:10.223Z,35.40
2019-03-29T08:43:40.530Z,35.10
2019-03-29T08:46:10.672Z,35.00
2019-03-29T08:48:40.881Z,34.50
2019-03-29T08:51:13.155Z,33.80
2019-03-29T08:53:46.252Z,33.90
2019-03-29T08:56:16.470Z,33.20
2019-03-29T08:58:46.802Z,32.60
2019-03-29T09:01:19.492Z,33.20
2019-03-29T09:04:03.246Z,32.70
2019-03-29T09:06:22.620Z,32.30
2019-03-29T09:08:56.317Z,31.90
2019-03-29T09:11:25.529Z,31.90
2019-03-29T09:13:55.753Z,30.60
2019-03-29T09:16:25.978Z,31.50
2019-03-29T09:18:57.578Z,31.40
2019-03-29T09:21:27.659Z,30.90
2019-03-29T09:23:57.885Z,30.60
2019-03-29T09:26:28.305Z,31.20
2019-03-29T09:28:58.456Z,30.90
2019-03-29T09:31:28.724Z,30.40
2019-03-29T09:33:58.873Z,30.20
2019-03-29T09:36:29.068Z,30.20
2019-03-29T09:38:59.130Z,30.40
2019-03-29T09:41:29.355Z,30.00
2019-03-29T09:44:01.118Z,30.00
2019-03-29T09:46:31.771Z,29.60
2019-03-29T09:49:08.025Z,30.20
2019-03-29T09:51:36.635Z,29.70
2019-03-29T09:54:06.798Z,30.30
2019-03-29T09:56:39.215Z,31.30
2019-03-29T09:59:08.732Z,31.20
2019-03-29T10:01:38.833Z,30.70
2019-03-29T10:04:08.810Z,30.40
2019-03-29T10:06:39.015Z,30.70
2019-03-29T10:09:09.082Z,31.10
2019-03-29T10:11:39.143Z,30.10
2019-03-29T10:14:10.994Z,30.00
2019-03-29T10:16:40.996Z,29.20
2019-03-29T10:19:11.104Z,29.10
2019-03-29T10:21:41.663Z,29.50
2019-03-29T10:24:11.785Z,29.60
2019-03-29T10:26:41.954Z,29.20
2019-03-29T10:29:12.081Z,28.70
2019-03-29T10:31:42.153Z,28.40
2019-03-29T10:34:12.141Z,28.30
2019-03-29T10:36:42.348Z,28.80
2019-03-29T10:39:13.159Z,27.90
2019-03-29T10:41:43.369Z,28.60
2019-03-29T10:44:13.588Z,28.80
2019-03-29T10:46:43.739Z,28.70
2019-03-29T10:49:13.922Z,29.30
2019-03-29T10:51:43.989Z,29.50
2019-03-29T10:54:14.283Z,28.80
2019-03-29T10:56:44.275Z,28.70
2019-03-29T10:59:26.729Z,28.70
2019-03-29T11:01:46.290Z,28.60
2019-03-29T11:04:16.379Z,28.30
2019-03-29T11:06:46.607Z,29.10
2019-03-29T11:09:17.068Z,28.50
2019-03-29T11:11:47.293Z,28.20
2019-03-29T11:14:17.408Z,27.70
2019-03-29T11:16:50.403Z,27.00
2019-03-29T11:19:20.482Z,27.70
2019-03-29T11:21:50.650Z,27.50
2019-03-29T11:24:20.786Z,26.90
2019-03-29T11:26:52.450Z,26.90
2019-03-29T11:29:25.626Z,27.60
2019-03-29T11:31:55.717Z,27.10
2019-03-29T11:34:25.926Z,26.60
2019-03-29T11:36:56.168Z,26.60
2019-03-29T11:39:27.590Z,26.60
2019-03-29T11:42:03.186Z,26.10
2019-03-29T11:44:32.706Z,26.10
2019-03-29T11:47:06.102Z,25.60
2019-03-29T11:49:36.535Z,25.70
2019-03-29T11:52:11.056Z,24.90
2019-03-29T11:54:42.120Z,24.90
2019-03-29T11:57:12.201Z,25.10
2019-03-29T11:59:43.767Z,24.30
2019-03-29T12:02:13.861Z,24.00
2019-03-29T12:04:44.115Z,24.70
2019-03-29T12:07:14.241Z,24.40
2019-03-29T12:09:44.439Z,23.60
2019-03-29T12:12:14.570Z,23.10
2019-03-29T12:14:44.723Z,23.30
2019-03-29T12:17:16.285Z,24.70
2019-03-29T12:19:46.498Z,24.70
2019-03-29T12:22:16.778Z,24.70
2019-03-29T12:24:47.546Z,25.20
2019-03-29T12:27:17.666Z,25.90
2019-03-29T12:29:47.924Z,25.40
2019-03-29T12:32:18.245Z,26.60
2019-03-29T12:34:48.301Z,25.80
2019-03-29T12:37:18.453Z,25.50
2019-03-29T12:39:51.560Z,25.50
2019-03-29T12:42:22.673Z,25.80
2019-03-29T12:44:52.777Z,25.30
2019-03-29T12:47:25.263Z,24.80
2019-03-29T12:49:55.429Z,26.10
2019-03-29T12:52:25.486Z,25.20
2019-03-29T12:54:55.484Z,25.50
2019-03-29T12:57:25.791Z,25.20
2019-03-29T12:59:56.356Z,25.10
2019-03-29T13:02:26.492Z,24.60
2019-03-29T13:04:56.698Z,23.70
2019-03-29T13:07:26.924Z,24.10
2019-03-29T13:09:57.050Z,24.70
2019-03-29T13:12:27.376Z,25.50
2019-03-29T13:15:06.595Z,25.30
2019-03-29T13:17:36.854Z,25.40
2019-03-29T13:20:08.067Z,25.00
2019-03-29T13:22:38.614Z,25.30
2019-03-29T13:25:10.511Z,25.00
2019-03-29T13:27:40.561Z,24.30
2019-03-29T13:30:11.883Z,24.00
2019-03-29T13:32:42.082Z,24.70
2019-03-29T13:35:14.742Z,25.40
2019-03-29T13:37:44.955Z,25.40
2019-03-29T13:40:15.185Z,26.00
2019-03-29T13:42:45.391Z,25.80
2019-03-29T13:45:15.727Z,25.80
2019-03-29T13:47:45.919Z,26.10
2019-03-29T13:50:19.381Z,26.00
2019-03-29T13:52:48.615Z,26.50
2019-03-29T13:55:18.780Z,25.80
2019-03-29T13:57:48.990Z,25.60
2019-03-29T14:00:19.683Z,25.50
2019-03-29T14:02:49.863Z,25.60
2019-03-29T14:05:20.120Z,25.40
2019-03-29T14:07:50.221Z,26.20
2019-03-29T14:10:22.469Z,25.60
2019-03-29T14:12:52.438Z,26.20
2019-03-29T14:15:22.761Z,26.30
2019-03-29T14:17:53.291Z,26.30
2019-03-29T14:20:33.840Z,26.40
2019-03-29T14:23:04.842Z,26.70
2019-03-29T14:25:35.090Z,26.20
2019-03-29T14:28:08.514Z,26.60
2019-03-29T14:30:38.747Z,26.50
2019-03-29T14:33:12.245Z,26.40
2019-03-29T14:35:42.457Z,26.10
2019-03-29T14:41:03.430Z,26.00
2019-03-29T14:43:34.884Z,27.60
2019-03-29T14:48:55.718Z,27.60
2019-03-29T14:51:25.779Z,27.70
2019-03-29T14:53:56.107Z,28.10
2019-03-29T14:56:26.222Z,28.50
2019-03-29T14:58:56.359Z,27.70
2019-03-29T15:01:26.430Z,27.50
2019-03-29T15:03:57.726Z,27.50
2019-03-29T15:06:27.938Z,27.70
2019-03-29T15:08:58.638Z,27.90
2019-03-29T15:11:28.787Z,28.40
2019-03-29T15:13:58.921Z,28.30
2019-03-29T15:16:30.101Z,27.90
2019-03-29T15:19:00.245Z,27.70
2019-03-29T15:21:30.519Z,27.70
2019-03-29T15:24:00.726Z,27.50
2019-03-29T15:26:32.689Z,27.70
2019-03-29T15:29:05.602Z,27.70
2019-03-29T15:31:35.910Z,27.50
2019-03-29T15:34:07.673Z,27.60
2019-03-29T15:36:39.866Z,27.60
2019-03-29T15:39:12.341Z,28.30
2019-03-29T15:41:42.507Z,28.40
2019-03-29T15:44:12.578Z,27.90
2019-03-29T15:46:42.881Z,28.10
2019-03-29T15:49:15.946Z,28.20
2019-03-29T15:51:46.481Z,28.10
2019-03-29T15:54:17.644Z,28.60
2019-03-29T15:56:47.810Z,28.30
2019-03-29T15:59:18.002Z,28.30
2019-03-29T16:01:48.261Z,28.50
2019-03-29T16:04:18.431Z,28.60
2019-03-29T16:09:45.307Z,28.50
2019-03-29T16:12:17.370Z,29.10
2019-03-29T16:14:47.897Z,28.90
2019-03-29T16:17:18.428Z,29.10
2019-03-29T16:19:53.257Z,29.20
2019-03-29T16:22:23.896Z,29.60
2019-03-29T16:24:57.694Z,29.60
2019-03-29T16:27:28.634Z,29.70
2019-03-29T16:29:59.162Z,29.80
2019-03-29T16:32:29.589Z,30.00
2019-03-29T16:34:59.915Z,30.00
2019-03-29T16:37:33.820Z,29.90
2019-03-29T16:40:06.297Z,29.80
2019-03-29T16:42:38.261Z,29.90
2019-03-29T16:45:09.095Z,30.00
2019-03-29T16:47:39.830Z,30.00
2019-03-29T16:50:10.745Z,30.20
2019-03-29T16:52:41.399Z,30.80
2019-03-29T16:55:13.794Z,30.90
2019-03-29T16:57:49.424Z,30.20
2019-03-29T17:00:20.055Z,30.80
2019-03-29T17:02:50.385Z,31.50
2019-03-29T17:05:20.881Z,31.90
2019-03-29T17:07:51.231Z,31.90
2019-03-29T17:10:21.861Z,31.90
2019-03-29T17:12:52.530Z,32.00
2019-03-29T17:15:23.125Z,32.10
2019-03-29T17:17:53.451Z,32.50
2019-03-29T17:20:25.311Z,32.90
2019-03-29T17:22:55.738Z,32.60
2019-03-29T17:25:26.264Z,32.40
2019-03-29T17:27:57.003Z,32.90
2019-03-29T17:31:01.014Z,32.80
2019-03-29T17:33:35.740Z,32.80
2019-03-29T17:36:06.578Z,32.90
2019-03-29T17:38:37.196Z,33.20
2019-03-29T17:41:09.188Z,33.30
2019-03-29T17:43:39.908Z,34.10
2019-03-29T17:46:16.516Z,34.50
2019-03-29T17:48:45.673Z,35.30
2019-03-29T17:51:16.023Z,35.70
2019-03-29T17:53:46.324Z,34.90
2019-03-29T17:56:16.852Z,35.20
2019-03-29T17:58:47.279Z,35.10
2019-03-29T18:01:17.705Z,35.20
2019-03-29T18:03:48.235Z,35.40
2019-03-29T18:06:20.301Z,35.20
2019-03-29T18:08:52.882Z,35.40
2019-03-29T18:11:26.581Z,35.60
2019-03-29T18:14:01.000Z,35.70
2019-03-29T18:16:33.168Z,35.80
2019-03-29T18:22:01.878Z,35.90
2019-03-29T18:24:41.234Z,35.80
2019-03-29T18:27:13.173Z,36.00
2019-03-29T18:29:46.468Z,36.20
2019-03-29T18:32:19.761Z,36.40
2019-03-29T18:34:54.797Z,36.40
2019-03-29T18:37:24.403Z,36.50
2019-03-29T18:39:56.638Z,36.50
2019-03-29T18:42:30.174Z,36.10
2019-03-29T18:45:03.115Z,36.60
2019-03-29T18:47:37.887Z,37.70
2019-03-29T18:50:19.612Z,38.30
2019-03-29T18:52:52.462Z,38.10
2019-03-29T18:55:25.755Z,37.50
2019-03-29T18:57:56.285Z,37.30
2019-03-29T19:00:32.251Z,38.20
2019-03-29T19:03:03.284Z,38.70
2019-03-29T19:05:34.021Z,39.20
2019-03-29T19:08:05.262Z,39.10
2019-03-29T19:10:35.587Z,38.90
2019-03-29T19:13:07.448Z,38.90
2019-03-29T19:15:38.292Z,38.70
2019-03-29T19:18:11.681Z,39.40
2019-03-29T19:20:48.149Z,40.20
2019-03-29T19:23:20.114Z,40.40
2019-03-29T19:25:50.617Z,40.30
2019-03-29T19:28:21.313Z,40.70
2019-03-29T19:30:51.804Z,40.90
2019-03-29T19:33:22.235Z,41.00
2019-03-29T19:35:52.556Z,41.30
2019-03-29T19:38:23.325Z,41.30
2019-03-29T19:40:53.714Z,41.00
2019-03-29T19:43:25.776Z,40.70
2019-03-29T19:45:56.297Z,40.90
2019-03-29T19:48:26.736Z,41.10
2019-03-29T19:51:01.368Z,41.30
2019-03-29T19:53:34.403Z,41.50
2019-03-29T19:56:05.191Z,41.50
2019-03-29T19:58:37.653Z,41.50
2019-03-29T20:01:08.222Z,41.50
2019-03-29T20:03:41.857Z,42.20
2019-03-29T20:06:12.118Z,42.10
2019-03-29T20:08:42.172Z,42.10
2019-03-29T20:11:12.247Z,42.10
2019-03-29T20:13:42.382Z,42.50
2019-03-29T20:16:12.567Z,42.60
2019-03-29T20:18:43.708Z,42.80
2019-03-29T20:21:13.963Z,42.80
2019-03-29T20:23:47.584Z,42.90
2019-03-29T20:26:17.705Z,42.80
2019-03-29T20:28:48.368Z,43.40
2019-03-29T20:31:20.610Z,43.60
2019-03-29T20:33:50.837Z,43.60
2019-03-29T20:36:23.233Z,43.10
2019-03-29T20:38:52.901Z,42.90
2019-03-29T20:41:23.218Z,43.20
2019-03-29T20:43:53.478Z,43.20
2019-03-29T20:46:23.786Z,42.90
2019-03-29T20:48:54.103Z,43.00
2019-03-29T20:51:24.120Z,43.20
2019-03-29T20:53:54.788Z,43.50
2019-03-29T20:56:28.973Z,43.60
2019-03-29T20:58:59.092Z,43.80
2019-03-29T21:01:29.229Z,43.80
2019-03-29T21:03:59.306Z,43.60
2019-03-29T21:06:29.497Z,43.60
2019-03-29T21:08:59.621Z,43.90
2019-03-29T21:11:31.415Z,44.40
2019-03-29T21:14:01.681Z,44.20
2019-03-29T21:16:31.733Z,44.10
2019-03-29T21:19:01.840Z,44.00
2019-03-29T21:21:32.046Z,44.20
2019-03-29T21:24:04.011Z,44.10
2019-03-29T21:26:36.635Z,44.50
2019-03-29T21:29:06.651Z,44.80
2019-03-29T21:31:36.972Z,44.70
2019-03-29T21:34:07.193Z,45.10
2019-03-29T21:36:40.361Z,45.00
2019-03-29T21:39:12.341Z,44.70
2019-03-29T21:41:44.192Z,44.80
2019-03-29T21:44:14.338Z,45.00
2019-03-29T21:46:45.585Z,45.30
2019-03-29T21:49:15.894Z,45.90
2019-03-29T21:51:46.144Z,46.80
2019-03-29T21:54:16.334Z,46.40
2019-03-29T21:56:46.438Z,45.90
2019-03-29T21:59:17.440Z,46.00
2019-03-29T22:01:47.685Z,45.80
2019-03-29T22:04:17.936Z,46.00
2019-03-29T22:06:52.284Z,46.20
2019-03-29T22:09:36.172Z,46.00
2019-03-29T22:11:54.354Z,46.10
2019-03-29T22:14:32.486Z,46.30
2019-03-29T22:17:10.458Z,46.70
2019-03-29T22:19:42.668Z,46.80
2019-03-29T22:22:12.791Z,46.50
2019-03-29T22:24:42.989Z,46.90
2019-03-29T22:27:13.203Z,46.90
2019-03-29T22:29:43.422Z,47.20
2019-03-29T22:32:13.588Z,47.80
2019-03-29T22:34:47.398Z,48.00
2019-03-29T22:37:17.552Z,48.60
2019-03-29T22:39:47.725Z,48.90
2019-03-29T22:42:17.810Z,48.90
2019-03-29T22:44:47.964Z,48.70
2019-03-29T22:47:18.178Z,48.60
2019-03-29T22:49:48.414Z,49.00
2019-03-29T22:52:26.224Z,49.60
2019-03-29T22:54:56.225Z,49.80
2019-03-29T22:57:26.359Z,50.00
2019-03-29T23:00:19.738Z,50.10
2019-03-29T23:02:52.041Z,50.20
2019-03-29T23:05:22.467Z,49.60
2019-03-29T23:07:52.891Z,49.30
2019-03-29T23:10:23.215Z,49.20
2019-03-29T23:12:53.648Z,49.60
2019-03-29T23:15:24.070Z,50.00
2019-03-29T23:17:57.571Z,50.30
2019-03-29T23:20:27.992Z,50.60
2019-03-29T23:23:00.265Z,50.70
2019-03-29T23:25:30.795Z,50.40
2019-03-29T23:28:03.067Z,50.50
2019-03-29T23:30:33.698Z,50.50
2019-03-29T23:33:05.658Z,50.40
2019-03-29T23:35:36.087Z,50.60
2019-03-29T23:38:08.153Z,50.70
2019-03-29T23:40:38.577Z,50.80
2019-03-29T23:43:09.107Z,51.10
2019-03-29T23:45:41.482Z,51.20
2019-03-29T23:48:13.851Z,51.00
2019-03-29T23:50:44.278Z,51.10
2019-03-29T23:53:14.806Z,51.40
2019-03-29T23:55:45.233Z,52.00
2019-03-29T23:58:15.558Z,52.10
